createdAt,value
2023-05-10T00:02:09.210Z,15.40
2023-05-10T00:04:36.392Z,14.97
2023-05-10T00:07:03.377Z,14.07
2023-05-10T00:09:30.226Z,14.40
2023-05-10T00:11:59.524Z,12.57
2023-05-10T00:14:26.440Z,13.50
2023-05-10T00:16:53.520Z,12.60
2023-05-10T00:19:20.800Z,14.23
2023-05-10T00:21:47.786Z,11.37
2023-05-10T00:24:14.624Z,12.20
2023-05-10T00:26:43.347Z,11.30
2023-05-10T00:29:10.341Z,10.00
2023-05-10T00:31:37.213Z,10.70
2023-05-10T00:34:04.077Z,10.90
2023-05-10T00:36:32.389Z,9.40
2023-05-10T00:38:59.424Z,10.63
2023-05-10T00:41:26.317Z,10.63
2023-05-10T00:43:53.200Z,10.70
2023-05-10T00:46:20.130Z,10.83
2023-05-10T00:48:47.129Z,11.63
2023-05-10T00:51:15.033Z,10.13
2023-05-10T00:53:42.192Z,10.53
2023-05-10T00:56:09.276Z,11.57
2023-05-10T00:58:36.134Z,10.20
2023-05-10T01:01:03.418Z,11.40
2023-05-10T01:03:30.679Z,9.87
2023-05-10T01:05:57.719Z,10.97
2023-05-10T01:08:24.870Z,10.00
2023-05-10T01:10:51.871Z,12.20
2023-05-10T01:13:34.623Z,10.77
2023-05-10T01:16:05.167Z,9.67
2023-05-10T01:18:34.583Z,9.07
2023-05-10T01:21:12.997Z,9.80
2023-05-10T01:23:52.034Z,9.73
2023-05-10T01:26:48.893Z,9.50
2023-05-10T01:29:34.366Z,9.63
2023-05-10T01:32:23.675Z,9.80
2023-05-10T01:35:44.385Z,10.07
2023-05-10T01:38:16.800Z,10.00
2023-05-10T01:40:55.834Z,9.60
2023-05-10T01:43:32.346Z,10.60
2023-05-10T01:46:12.023Z,9.90
2023-05-10T01:48:52.617Z,10.03
2023-05-10T01:51:24.986Z,10.00
2023-05-10T01:53:55.289Z,9.83
2023-05-10T01:56:26.867Z,12.30
2023-05-10T01:58:55.268Z,11.63
2023-05-10T02:01:23.172Z,12.70
2023-05-10T02:03:52.974Z,14.50
2023-05-10T02:06:23.323Z,14.93
2023-05-10T02:08:51.635Z,15.67
2023-05-10T02:11:19.740Z,16.07
2023-05-10T02:13:49.046Z,14.90
2023-05-10T02:16:18.131Z,16.80
2023-05-10T02:18:45.913Z,16.03
2023-05-10T02:21:14.368Z,17.07
2023-05-10T02:23:41.647Z,17.40
2023-05-10T02:26:09.930Z,15.23
2023-05-10T02:28:38.765Z,16.27
2023-05-10T02:31:07.210Z,17.70
2023-05-10T02:33:35.969Z,15.90
2023-05-10T02:36:04.616Z,17.67
2023-05-10T02:38:32.799Z,18.03
2023-05-10T02:41:01.711Z,18.50
2023-05-10T02:43:31.169Z,17.63
2023-05-10T02:45:58.668Z,18.90
2023-05-10T02:48:25.613Z,18.90
2023-05-10T02:50:56.029Z,20.17
2023-05-10T02:53:29.700Z,19.73
2023-05-10T02:56:00.799Z,19.70
2023-05-10T02:58:28.124Z,21.83
2023-05-10T03:00:55.268Z,21.60
2023-05-10T03:03:22.269Z,21.07
2023-05-10T03:05:49.102Z,22.83
2023-05-10T03:08:16.165Z,22.40
2023-05-10T03:10:52.324Z,25.50
2023-05-10T03:13:33.920Z,27.00
2023-05-10T03:16:09.092Z,26.03
2023-05-10T03:18:47.594Z,27.77
2023-05-10T03:21:17.406Z,27.77
2023-05-10T03:24:01.516Z,27.87
2023-05-10T03:26:30.172Z,29.07
2023-05-10T03:29:00.022Z,30.17
2023-05-10T03:31:26.984Z,28.33
2023-05-10T03:33:54.332Z,28.03
2023-05-10T03:36:21.206Z,30.17
2023-05-10T03:38:48.180Z,29.83
2023-05-10T03:41:15.287Z,28.10
2023-05-10T03:43:42.966Z,29.27
2023-05-10T03:46:09.865Z,29.00
2023-05-10T03:48:36.775Z,27.77
2023-05-10T03:51:03.738Z,28.67
2023-05-10T03:53:30.621Z,26.87
2023-05-10T03:55:57.583Z,28.40
2023-05-10T03:58:24.565Z,28.37
2023-05-10T04:00:52.750Z,27.03
2023-05-10T04:03:19.802Z,28.03
2023-05-10T04:05:46.682Z,29.17
2023-05-10T04:08:13.627Z,28.07
2023-05-10T04:10:40.911Z,27.20
2023-05-10T04:13:07.839Z,27.93
2023-05-10T04:15:34.900Z,27.03
2023-05-10T04:18:02.038Z,28.40
2023-05-10T04:20:29.235Z,25.50
2023-05-10T04:22:56.172Z,27.13
2023-05-10T04:25:22.998Z,26.93
2023-05-10T04:27:49.805Z,28.20
2023-05-10T04:30:16.859Z,28.30
2023-05-10T04:32:43.920Z,28.60
2023-05-10T04:35:11.808Z,28.17
2023-05-10T04:37:38.748Z,27.87
2023-05-10T04:40:06.450Z,28.37
2023-05-10T04:42:33.596Z,29.10
2023-05-10T04:45:00.421Z,30.33
2023-05-10T04:47:27.255Z,30.87
2023-05-10T04:49:54.094Z,31.00
2023-05-10T04:52:21.032Z,29.83
2023-05-10T04:54:48.355Z,30.93
2023-05-10T04:57:15.213Z,29.83
2023-05-10T04:59:42.020Z,31.00
2023-05-10T05:02:09.167Z,30.53
2023-05-10T05:04:36.112Z,30.53
2023-05-10T05:07:02.943Z,30.33
2023-05-10T05:09:29.793Z,29.30
2023-05-10T05:11:57.038Z,31.50
2023-05-10T05:14:26.117Z,29.30
2023-05-10T05:16:54.154Z,30.83
2023-05-10T05:19:21.093Z,32.07
2023-05-10T05:21:47.918Z,30.07
2023-05-10T05:24:14.768Z,30.17
2023-05-10T05:26:41.639Z,28.27
2023-05-10T05:29:08.519Z,30.30
2023-05-10T05:31:35.355Z,28.93
2023-05-10T05:34:02.229Z,27.67
2023-05-10T05:36:29.078Z,30.60
2023-05-10T05:38:56.096Z,29.80
2023-05-10T05:41:22.913Z,31.07
2023-05-10T05:43:49.765Z,29.33
2023-05-10T05:46:16.662Z,29.47
2023-05-10T05:48:43.653Z,30.07
2023-05-10T05:51:10.582Z,29.40
2023-05-10T05:53:37.466Z,31.50
2023-05-10T05:56:04.781Z,30.87
2023-05-10T05:58:31.701Z,29.40
2023-05-10T06:00:58.576Z,29.63
2023-05-10T06:03:25.518Z,29.10
2023-05-10T06:05:52.419Z,30.87
2023-05-10T06:08:19.232Z,30.87
2023-05-10T06:10:46.512Z,29.97
2023-05-10T06:13:13.756Z,30.57
2023-05-10T06:15:41.159Z,34.60
2023-05-10T06:18:08.420Z,31.57
2023-05-10T06:20:35.334Z,29.20
2023-05-10T06:23:02.315Z,30.70
2023-05-10T06:25:29.116Z,30.40
2023-05-10T06:27:58.802Z,32.03
2023-05-10T06:30:30.112Z,29.83
2023-05-10T06:32:57.757Z,30.03
2023-05-10T06:35:24.837Z,31.37
2023-05-10T06:37:52.566Z,29.10
2023-05-10T06:40:19.764Z,29.90
2023-05-10T06:42:47.487Z,29.27
2023-05-10T06:45:15.880Z,31.10
2023-05-10T06:47:43.215Z,29.70
2023-05-10T06:50:10.862Z,30.10
2023-05-10T06:52:38.021Z,30.03
2023-05-10T06:55:05.853Z,30.27
2023-05-10T06:57:33.191Z,29.20
2023-05-10T07:00:00.576Z,31.13
2023-05-10T07:02:27.771Z,29.80
2023-05-10T07:04:55.261Z,30.37
2023-05-10T07:07:22.298Z,31.00
2023-05-10T07:09:50.077Z,29.13
2023-05-10T07:12:17.039Z,29.20
2023-05-10T07:14:43.927Z,27.93
2023-05-10T07:17:11.151Z,27.37
2023-05-10T07:19:38.104Z,28.27
2023-05-10T07:22:04.990Z,30.40
2023-05-10T07:24:32.637Z,28.07
2023-05-10T07:26:59.593Z,25.43
2023-05-10T07:29:26.834Z,27.37
2023-05-10T07:31:55.406Z,25.90
2023-05-10T07:34:24.007Z,26.73
2023-05-10T07:36:50.867Z,26.07
2023-05-10T07:39:26.506Z,24.23
2023-05-10T07:41:53.982Z,23.93
2023-05-10T07:44:21.489Z,25.13
2023-05-10T07:46:48.834Z,23.90
2023-05-10T07:49:15.910Z,22.03
2023-05-10T07:51:43.643Z,22.50
2023-05-10T07:54:10.678Z,22.57
2023-05-10T07:56:37.602Z,20.73
2023-05-10T07:59:06.291Z,20.97
2023-05-10T08:01:34.566Z,17.97
2023-05-10T08:04:03.072Z,19.53
2023-05-10T08:06:31.265Z,17.70
2023-05-10T08:08:58.842Z,19.90
2023-05-10T08:11:26.170Z,17.83
2023-05-10T08:13:54.043Z,20.20
2023-05-10T08:16:21.413Z,18.33
2023-05-10T08:18:50.268Z,19.13
2023-05-10T08:21:17.366Z,18.97
2023-05-10T08:23:45.297Z,18.90
2023-05-10T08:26:12.393Z,19.90
2023-05-10T08:28:39.456Z,18.73
2023-05-10T08:31:06.587Z,19.40
2023-05-10T08:33:33.820Z,18.90
2023-05-10T08:36:00.842Z,18.17
2023-05-10T08:38:27.707Z,19.50
2023-05-10T08:40:59.884Z,19.27
2023-05-10T08:43:31.071Z,19.30
2023-05-10T08:46:02.395Z,19.03
2023-05-10T08:48:30.977Z,19.73
2023-05-10T08:50:59.991Z,21.23
2023-05-10T08:53:29.813Z,19.63
2023-05-10T08:55:57.147Z,19.20
2023-05-10T08:58:24.132Z,18.93
2023-05-10T09:00:54.152Z,19.13
2023-05-10T09:03:21.121Z,18.20
2023-05-10T09:05:49.518Z,17.20
2023-05-10T09:08:19.805Z,16.17
2023-05-10T09:10:48.686Z,17.13
2023-05-10T09:13:16.774Z,18.03
2023-05-10T09:15:45.459Z,17.13
2023-05-10T09:18:12.896Z,17.07
2023-05-10T09:20:39.812Z,16.20
2023-05-10T09:23:07.055Z,16.10
2023-05-10T09:25:36.888Z,16.93
2023-05-10T09:28:07.039Z,16.00
2023-05-10T09:30:33.930Z,15.13
2023-05-10T09:33:01.909Z,15.60
2023-05-10T09:35:31.337Z,15.37
2023-05-10T09:38:01.494Z,16.27
2023-05-10T09:40:30.053Z,14.17
2023-05-10T09:43:08.960Z,14.40
2023-05-10T09:45:38.621Z,14.30
2023-05-10T09:48:07.088Z,14.93
2023-05-10T09:50:35.307Z,14.00
2023-05-10T09:53:04.696Z,14.90
2023-05-10T09:58:22.289Z,22.53
2023-05-10T10:00:52.441Z,15.80
2023-05-10T10:03:21.538Z,16.07
2023-05-10T10:05:49.705Z,17.23
2023-05-10T10:08:17.870Z,15.77
2023-05-10T10:10:47.661Z,17.33
2023-05-10T10:13:15.215Z,15.70
2023-05-10T10:15:44.718Z,17.47
2023-05-10T10:18:16.381Z,19.70
2023-05-10T10:20:43.707Z,17.60
2023-05-10T10:23:10.865Z,19.67
2023-05-10T10:25:39.745Z,19.30
2023-05-10T10:28:27.518Z,18.20
2023-05-10T10:30:57.386Z,16.27
2023-05-10T10:33:53.649Z,16.87
2023-05-10T10:36:21.422Z,17.10
2023-05-10T10:38:48.214Z,16.50
2023-05-10T10:41:36.003Z,18.13
2023-05-10T10:44:37.709Z,17.40
2023-05-10T10:47:15.407Z,16.00
2023-05-10T10:49:42.604Z,15.60
2023-05-10T10:52:24.618Z,17.10
2023-05-10T10:55:09.467Z,16.40
2023-05-10T10:57:42.545Z,15.17
2023-05-10T11:00:32.439Z,14.93
2023-05-10T11:03:05.504Z,13.70
2023-05-10T11:05:43.709Z,15.00
2023-05-10T11:08:13.139Z,14.43
2023-05-10T11:10:41.206Z,13.67
2023-05-10T11:13:10.341Z,14.40
2023-05-10T11:15:39.906Z,14.10
2023-05-10T11:18:29.871Z,12.60
2023-05-10T11:21:01.046Z,12.50
2023-05-10T11:23:41.085Z,12.17
2023-05-10T11:26:12.126Z,13.37
2023-05-10T11:28:46.964Z,11.93
2023-05-10T11:31:18.306Z,12.17
2023-05-10T11:33:51.153Z,12.90
2023-05-10T11:36:34.059Z,12.77
2023-05-10T11:39:01.019Z,13.10
2023-05-10T11:41:30.602Z,12.87
2023-05-10T11:43:58.778Z,12.07
2023-05-10T11:46:28.056Z,13.77
2023-05-10T11:49:01.749Z,14.40
2023-05-10T11:51:28.999Z,14.90
2023-05-10T11:53:57.796Z,17.47
2023-05-10T11:56:24.881Z,18.33
2023-05-10T11:58:58.790Z,19.27
2023-05-10T12:01:27.759Z,18.63
2023-05-10T12:03:56.554Z,18.53
2023-05-10T12:06:23.686Z,18.90
2023-05-10T12:08:54.797Z,17.33
2023-05-10T12:11:25.377Z,17.27
2023-05-10T12:13:52.801Z,17.43
2023-05-10T12:16:29.384Z,18.20
2023-05-10T12:19:01.392Z,17.10
2023-05-10T12:21:31.802Z,17.63
2023-05-10T12:24:04.466Z,17.53
2023-05-10T12:26:32.067Z,16.97
2023-05-10T12:29:16.891Z,16.57
2023-05-10T12:31:55.003Z,17.30
2023-05-10T12:34:32.776Z,17.17
2023-05-10T12:37:00.000Z,16.33
2023-05-10T12:39:27.037Z,16.50
2023-05-10T12:41:54.104Z,15.90
2023-05-10T12:44:21.164Z,16.33
2023-05-10T12:46:48.063Z,16.80
2023-05-10T12:49:15.002Z,14.53
2023-05-10T12:51:41.901Z,14.50
2023-05-10T12:54:08.803Z,14.57
2023-05-10T12:56:35.712Z,14.20
2023-05-10T12:59:02.616Z,13.73
2023-05-10T13:01:29.565Z,13.27
2023-05-10T13:03:56.409Z,13.37
2023-05-10T13:06:23.385Z,13.77
2023-05-10T13:08:50.305Z,13.23
2023-05-10T13:11:18.097Z,13.37
2023-05-10T13:13:44.994Z,12.00
2023-05-10T13:16:11.841Z,12.77
2023-05-10T13:18:38.749Z,13.27
2023-05-10T13:21:06.548Z,11.60
2023-05-10T13:23:33.502Z,13.07
2023-05-10T13:26:00.346Z,12.37
2023-05-10T13:28:27.534Z,13.60
2023-05-10T13:30:54.449Z,12.83
2023-05-10T13:33:21.284Z,13.50
2023-05-10T13:35:48.081Z,13.40
2023-05-10T13:38:15.277Z,12.50
2023-05-10T13:40:42.108Z,16.50
2023-05-10T13:43:08.973Z,12.07
2023-05-10T13:45:35.831Z,13.03
2023-05-10T13:48:02.786Z,14.23
2023-05-10T13:50:29.693Z,13.10
2023-05-10T13:52:56.623Z,12.73
2023-05-10T13:55:23.500Z,11.90
2023-05-10T13:57:50.322Z,13.40
2023-05-10T14:00:17.594Z,12.97
2023-05-10T14:02:44.806Z,11.17
2023-05-10T14:05:12.398Z,12.10
2023-05-10T14:07:39.829Z,11.80
2023-05-10T14:10:07.350Z,10.87
2023-05-10T14:12:34.254Z,10.03
2023-05-10T14:15:01.307Z,12.20
2023-05-10T14:20:07.957Z,11.97
2023-05-10T14:22:34.900Z,10.27
2023-05-10T14:25:01.909Z,10.77
2023-05-10T14:27:28.987Z,11.10
2023-05-10T14:29:55.822Z,9.73
2023-05-10T14:32:22.783Z,12.07
2023-05-10T14:34:49.696Z,18.70
2023-05-10T14:37:17.411Z,12.30
2023-05-10T14:39:44.425Z,11.17
2023-05-10T14:42:11.316Z,11.07
2023-05-10T14:44:38.482Z,10.90
2023-05-10T14:47:05.395Z,9.80
2023-05-10T14:49:32.726Z,9.97
2023-05-10T14:51:59.572Z,9.10
2023-05-10T14:54:26.428Z,9.10
2023-05-10T14:56:53.252Z,10.07
2023-05-10T14:59:20.097Z,9.77
2023-05-10T15:01:47.591Z,8.87
2023-05-10T15:04:17.222Z,9.33
2023-05-10T15:06:44.859Z,8.37
2023-05-10T15:09:11.907Z,9.07
2023-05-10T15:11:38.745Z,8.03
2023-05-10T15:14:05.713Z,10.40
2023-05-10T15:16:35.700Z,9.70
2023-05-10T15:19:03.165Z,10.43
2023-05-10T15:21:31.892Z,11.80
2023-05-10T15:23:58.732Z,12.20
2023-05-10T15:26:27.373Z,11.83
2023-05-10T15:28:54.247Z,10.33
2023-05-10T15:31:21.096Z,9.43
2023-05-10T15:33:47.978Z,8.93
2023-05-10T15:36:14.808Z,8.70
2023-05-10T15:38:41.640Z,12.50
2023-05-10T15:41:08.465Z,10.60
2023-05-10T15:43:35.292Z,6.77
2023-05-10T15:46:02.213Z,7.50
2023-05-10T15:48:29.288Z,7.40
2023-05-10T15:50:56.968Z,7.97
2023-05-10T15:53:23.837Z,7.50
2023-05-10T15:55:50.746Z,7.87
2023-05-10T15:58:17.581Z,10.23
2023-05-10T16:00:44.464Z,14.10
2023-05-10T16:03:11.376Z,14.00
2023-05-10T16:05:38.233Z,12.60
2023-05-10T16:08:05.220Z,12.00
2023-05-10T16:10:33.452Z,13.00
2023-05-10T16:13:00.736Z,14.57
2023-05-10T16:15:27.694Z,14.13
2023-05-10T16:17:54.712Z,15.03
2023-05-10T16:20:21.772Z,15.43
2023-05-10T16:22:48.656Z,16.03
2023-05-10T16:25:15.739Z,15.87
2023-05-10T16:27:43.422Z,17.00
2023-05-10T16:30:10.588Z,17.93
2023-05-10T16:32:37.438Z,17.07
2023-05-10T16:35:04.920Z,17.70
2023-05-10T16:37:31.757Z,18.33
2023-05-10T16:39:58.546Z,19.23
2023-05-10T16:42:26.210Z,19.90
2023-05-10T16:44:53.837Z,19.47
2023-05-10T16:47:20.770Z,18.57
2023-05-10T16:49:47.692Z,16.40
2023-05-10T16:52:14.508Z,17.13
2023-05-10T16:54:41.378Z,14.60
2023-05-10T16:57:08.782Z,13.67
2023-05-10T16:59:35.693Z,14.67
2023-05-10T17:02:02.613Z,14.30
2023-05-10T17:04:29.493Z,16.07
2023-05-10T17:06:56.453Z,13.57
2023-05-10T17:09:23.446Z,12.50
2023-05-10T17:11:50.287Z,12.30
2023-05-10T17:14:17.110Z,14.57
2023-05-10T17:16:43.968Z,14.40
2023-05-10T17:19:11.396Z,13.40
2023-05-10T17:21:38.251Z,10.13
2023-05-10T17:24:05.345Z,9.33
2023-05-10T17:26:32.257Z,8.83
2023-05-10T17:28:59.094Z,8.60
2023-05-10T17:31:27.401Z,7.30
2023-05-10T17:33:54.627Z,7.97
2023-05-10T17:36:21.631Z,7.53
2023-05-10T17:38:48.614Z,8.57
2023-05-10T17:41:15.494Z,8.70
2023-05-10T17:43:42.311Z,7.87
2023-05-10T17:46:09.186Z,9.33
2023-05-10T17:48:37.193Z,8.30
2023-05-10T17:51:04.518Z,8.53
2023-05-10T17:53:31.642Z,7.97
2023-05-10T17:55:59.284Z,8.00
2023-05-10T17:58:26.159Z,9.43
2023-05-10T18:00:53.456Z,9.13
2023-05-10T18:03:20.720Z,8.27
2023-05-10T18:05:48.117Z,9.00
2023-05-10T18:08:15.379Z,10.63
2023-05-10T18:10:42.285Z,9.67
2023-05-10T18:13:09.517Z,8.80
2023-05-10T18:15:36.543Z,10.13
2023-05-10T18:18:04.769Z,9.53
2023-05-10T18:20:31.991Z,9.10
2023-05-10T18:22:59.146Z,9.20
2023-05-10T18:25:26.495Z,9.40
2023-05-10T18:27:53.376Z,9.90
2023-05-10T18:30:20.264Z,9.20
2023-05-10T18:32:47.290Z,11.03
2023-05-10T18:35:14.784Z,12.27
2023-05-10T18:37:42.158Z,11.13
2023-05-10T18:40:11.219Z,11.30
2023-05-10T18:42:38.252Z,10.87
2023-05-10T18:45:06.157Z,10.97
2023-05-10T18:47:32.998Z,11.93
2023-05-10T18:50:00.188Z,10.77
2023-05-10T18:52:27.089Z,11.40
2023-05-10T18:54:53.901Z,9.47
2023-05-10T18:57:22.024Z,10.10
2023-05-10T18:59:49.488Z,9.90
2023-05-10T19:02:16.488Z,7.80
2023-05-10T19:04:43.558Z,8.30
2023-05-10T19:07:10.384Z,8.20
2023-05-10T19:09:37.312Z,8.00
2023-05-10T19:12:04.262Z,8.23
2023-05-10T19:14:31.204Z,8.30
2023-05-10T19:17:00.073Z,7.77
2023-05-10T19:19:27.571Z,8.23
2023-05-10T19:21:55.976Z,7.97
2023-05-10T19:24:25.842Z,8.10
2023-05-10T19:26:53.112Z,8.40
2023-05-10T19:29:19.926Z,8.63
2023-05-10T19:31:47.129Z,8.50
2023-05-10T19:34:13.980Z,9.50
2023-05-10T19:36:40.993Z,8.77
2023-05-10T19:39:07.874Z,8.90
2023-05-10T19:41:34.784Z,8.70
2023-05-10T19:44:01.596Z,9.40
2023-05-10T19:46:28.573Z,9.57
2023-05-10T19:48:55.438Z,10.37
2023-05-10T19:51:22.420Z,10.73
2023-05-10T19:53:49.369Z,11.47
2023-05-10T19:56:18.413Z,11.50
2023-05-10T19:58:45.695Z,12.23
2023-05-10T20:01:12.824Z,11.70
2023-05-10T20:03:39.802Z,11.97
2023-05-10T20:06:09.587Z,11.20
2023-05-10T20:08:36.426Z,11.23
2023-05-10T20:11:04.036Z,10.87
2023-05-10T20:13:30.945Z,12.80
2023-05-10T20:15:59.608Z,12.40
2023-05-10T20:18:27.183Z,12.50
2023-05-10T20:20:59.283Z,11.80
2023-05-10T20:23:26.538Z,12.03
2023-05-10T20:25:54.843Z,12.30
2023-05-10T20:28:23.450Z,12.60
2023-05-10T20:30:54.802Z,12.93
2023-05-10T20:33:22.715Z,13.43
2023-05-10T20:35:50.545Z,12.57
2023-05-10T20:38:18.411Z,12.90
2023-05-10T20:40:45.795Z,14.40
2023-05-10T20:43:12.858Z,13.90
2023-05-10T20:45:39.778Z,15.33
2023-05-10T20:48:06.841Z,15.87
2023-05-10T20:50:33.749Z,16.80
2023-05-10T20:53:01.647Z,15.90
2023-05-10T20:55:28.968Z,15.50
2023-05-10T20:57:55.889Z,16.30
2023-05-10T21:00:22.797Z,15.80
2023-05-10T21:02:49.836Z,16.50
2023-05-10T21:05:18.480Z,17.10
2023-05-10T21:07:45.384Z,16.23
2023-05-10T21:10:12.500Z,17.37
2023-05-10T21:12:39.422Z,15.57
2023-05-10T21:15:06.830Z,17.37
2023-05-10T21:20:06.527Z,16.73
2023-05-10T21:22:33.384Z,18.47
2023-05-10T21:25:00.243Z,18.53
2023-05-10T21:27:27.474Z,19.50
2023-05-10T21:29:54.346Z,19.60
2023-05-10T21:32:21.217Z,19.40
2023-05-10T21:34:48.077Z,20.63
2023-05-10T21:37:17.073Z,20.07
2023-05-10T21:39:44.362Z,21.40
2023-05-10T21:42:11.488Z,20.00
2023-05-10T21:44:38.851Z,19.27
2023-05-10T21:47:05.861Z,20.20
2023-05-10T21:49:32.670Z,20.90
2023-05-10T21:51:59.502Z,20.30
2023-05-10T21:54:26.502Z,18.77
2023-05-10T21:56:53.436Z,17.53
2023-05-10T21:59:21.784Z,18.37
2023-05-10T22:01:48.850Z,18.87
2023-05-10T22:04:15.842Z,17.13
2023-05-10T22:06:42.714Z,17.10
2023-05-10T22:09:10.215Z,18.27
2023-05-10T22:11:37.101Z,16.90
2023-05-10T22:14:04.109Z,16.80
2023-05-10T22:16:31.171Z,16.80
2023-05-10T22:18:58.110Z,16.47
2023-05-10T22:21:25.091Z,16.03
2023-05-10T22:23:51.978Z,16.30
2023-05-10T22:26:18.853Z,15.47
2023-05-10T22:28:45.649Z,16.17
2023-05-10T22:31:12.821Z,15.97
2023-05-10T22:33:39.783Z,16.40
2023-05-10T22:36:06.900Z,16.77
2023-05-10T22:38:33.792Z,16.77
2023-05-10T22:41:00.803Z,16.87
2023-05-10T22:46:08.196Z,16.80
2023-05-10T22:48:36.028Z,16.37
2023-05-10T22:51:02.897Z,17.57
2023-05-10T22:53:29.725Z,16.30
2023-05-10T22:55:56.683Z,15.83
2023-05-10T22:58:23.793Z,17.67
2023-05-10T23:00:50.849Z,17.80
2023-05-10T23:03:18.102Z,16.83
2023-05-10T23:05:44.984Z,16.47
2023-05-10T23:08:11.865Z,15.67
2023-05-10T23:10:39.250Z,16.37
2023-05-10T23:13:06.460Z,18.07
2023-05-10T23:15:33.511Z,18.23
2023-05-10T23:18:04.697Z,17.33
2023-05-10T23:20:31.817Z,18.30
2023-05-10T23:22:58.921Z,18.47
2023-05-10T23:25:25.751Z,17.03
2023-05-10T23:27:52.602Z,18.27
2023-05-10T23:30:19.699Z,19.30
2023-05-10T23:32:46.645Z,16.90
2023-05-10T23:35:13.501Z,17.53
2023-05-10T23:40:21.781Z,17.93
2023-05-10T23:42:48.660Z,18.73
2023-05-10T23:45:15.824Z,18.43
2023-05-10T23:47:42.929Z,17.53
2023-05-10T23:50:10.454Z,18.30
2023-05-10T23:52:37.424Z,18.90
2023-05-10T23:55:04.427Z,19.80
2023-05-10T23:57:31.234Z,18.77
2023-05-10T23:59:58.208Z,17.87
